createdAt,value
2018-12-31T00:00:47.576Z,101427.96
2018-12-31T00:03:16.957Z,101425.34
2018-12-31T00:05:46.324Z,101426.87
2018-12-31T00:08:15.701Z,101426.34
2018-12-31T00:10:45.104Z,101423.86
2018-12-31T00:13:14.484Z,101423.34
2018-12-31T00:15:43.843Z,101420.53
2018-12-31T00:18:13.217Z,101426.74
2018-12-31T00:20:42.584Z,101423.02
2018-12-31T00:23:11.966Z,101422.96
2018-12-31T00:25:41.640Z,101429.21
2018-12-31T00:28:11.012Z,101428.76
2018-12-31T00:30:40.390Z,101425.80
2018-12-31T00:33:09.766Z,101428.92
2018-12-31T00:35:39.142Z,101424.53
2018-12-31T00:38:08.532Z,101422.86
2018-12-31T00:40:37.896Z,101425.30
2018-12-31T00:43:07.274Z,101427.25
2018-12-31T00:45:37.119Z,101426.28
2018-12-31T00:48:07.389Z,101427.49
2018-12-31T00:50:37.100Z,101436.09
2018-12-31T00:53:06.480Z,101428.97
2018-12-31T00:55:35.853Z,101434.52
2018-12-31T00:58:05.239Z,101439.20
2018-12-31T01:00:35.047Z,101434.21
2018-12-31T01:03:04.402Z,101437.86
2018-12-31T01:05:33.801Z,101434.45
2018-12-31T01:08:03.265Z,101435.34
2018-12-31T01:10:32.660Z,101432.65
2018-12-31T01:13:04.103Z,101438.18
2018-12-31T01:15:33.246Z,101443.16
2018-12-31T01:18:04.238Z,101439.31
2018-12-31T01:20:33.763Z,101438.20
2018-12-31T01:23:04.637Z,101436.59
2018-12-31T01:25:34.122Z,101433.28
2018-12-31T01:28:05.675Z,101432.77
2018-12-31T01:30:37.057Z,101433.63
2018-12-31T01:33:06.724Z,101440.54
2018-12-31T01:35:36.435Z,101438.37
2018-12-31T01:38:05.821Z,101436.39
2018-12-31T01:40:35.212Z,101444.53
2018-12-31T01:43:04.698Z,101433.08
2018-12-31T01:45:34.092Z,101437.55
2018-12-31T01:48:03.768Z,101438.61
2018-12-31T01:50:33.179Z,101437.84
2018-12-31T01:53:05.313Z,101439.09
2018-12-31T01:55:34.787Z,101438.16
2018-12-31T01:58:04.206Z,101437.77
2018-12-31T02:00:33.835Z,101437.10
2018-12-31T02:03:03.255Z,101439.59
2018-12-31T02:05:32.661Z,101435.99
2018-12-31T02:08:02.075Z,101439.56
2018-12-31T02:10:31.626Z,101442.81
2018-12-31T02:13:01.298Z,101439.98
2018-12-31T02:15:30.742Z,101449.27
2018-12-31T02:18:00.162Z,101449.69
2018-12-31T02:20:29.525Z,101453.72
2018-12-31T02:22:58.944Z,101461.55
2018-12-31T02:25:30.148Z,101460.46
2018-12-31T02:27:59.576Z,101465.97
2018-12-31T02:30:29.224Z,101468.80
2018-12-31T02:33:00.002Z,101467.08
2018-12-31T02:35:29.471Z,101469.14
2018-12-31T02:37:59.097Z,101471.07
2018-12-31T02:40:28.935Z,101475.22
2018-12-31T02:43:00.436Z,101478.96
2018-12-31T02:45:29.848Z,101477.61
2018-12-31T02:47:59.240Z,101474.36
2018-12-31T02:50:28.624Z,101476.31
2018-12-31T02:52:58.107Z,101473.03
2018-12-31T02:55:27.520Z,101470.39
2018-12-31T02:57:56.930Z,101468.11
2018-12-31T03:00:26.363Z,101460.44
2018-12-31T03:02:55.723Z,101458.19
2018-12-31T03:05:25.126Z,101454.45
2018-12-31T03:07:55.474Z,101452.13
2018-12-31T03:10:25.206Z,101450.78
2018-12-31T03:12:54.859Z,101450.63
2018-12-31T03:15:24.499Z,101448.51
2018-12-31T03:17:53.899Z,101446.41
2018-12-31T03:20:23.331Z,101447.42
2018-12-31T03:22:52.727Z,101453.50
2018-12-31T03:25:22.114Z,101444.77
2018-12-31T03:27:51.519Z,101440.17
2018-12-31T03:30:21.144Z,101444.04
2018-12-31T03:32:50.592Z,101443.11
2018-12-31T03:35:19.993Z,101428.95
2018-12-31T03:37:49.371Z,101430.07
2018-12-31T03:40:18.823Z,101422.16
2018-12-31T03:42:48.278Z,101419.38
2018-12-31T03:45:17.691Z,101417.88
2018-12-31T03:47:47.072Z,101423.03
2018-12-31T03:50:16.497Z,101422.16
2018-12-31T03:52:45.868Z,101420.96
2018-12-31T03:55:15.235Z,101420.44
2018-12-31T03:57:44.634Z,101419.59
2018-12-31T04:00:14.006Z,101422.37
2018-12-31T04:02:43.462Z,101423.64
2018-12-31T04:05:12.935Z,101425.06
2018-12-31T04:07:42.352Z,101425.31
2018-12-31T04:10:12.898Z,101428.50
2018-12-31T04:12:42.318Z,101422.02
2018-12-31T04:15:11.700Z,101426.95
2018-12-31T04:17:41.156Z,101428.19
2018-12-31T04:20:10.544Z,101431.79
2018-12-31T04:22:42.838Z,101423.16
2018-12-31T04:25:12.240Z,101429.98
2018-12-31T04:27:41.620Z,101421.09
2018-12-31T04:30:11.072Z,101431.09
2018-12-31T04:32:40.449Z,101427.58
2018-12-31T04:35:09.882Z,101434.27
2018-12-31T04:37:41.884Z,101439.98
2018-12-31T04:40:11.570Z,101434.19
2018-12-31T04:42:41.014Z,101422.84
2018-12-31T04:45:10.407Z,101425.12
2018-12-31T04:47:41.588Z,101432.05
2018-12-31T04:50:10.977Z,101435.02
2018-12-31T04:52:40.406Z,101439.45
2018-12-31T04:55:10.035Z,101440.11
2018-12-31T04:57:39.691Z,101439.01
2018-12-31T05:00:09.442Z,101433.87
2018-12-31T05:02:38.837Z,101415.54
2018-12-31T05:05:08.217Z,101418.05
2018-12-31T05:07:37.636Z,101420.89
2018-12-31T05:10:07.172Z,101428.95
2018-12-31T05:12:36.553Z,101426.78
2018-12-31T05:15:06.686Z,101430.04
2018-12-31T05:17:36.088Z,101422.74
2018-12-31T05:20:06.597Z,101428.03
2018-12-31T05:22:36.112Z,101432.68
2018-12-31T05:25:05.681Z,101431.50
2018-12-31T05:27:35.318Z,101436.94
2018-12-31T05:30:06.317Z,101437.71
2018-12-31T05:32:39.378Z,101441.55
2018-12-31T05:35:08.783Z,101440.86
2018-12-31T05:37:57.493Z,101441.20
2018-12-31T05:40:26.875Z,101445.78
2018-12-31T05:42:56.253Z,101448.96
2018-12-31T05:45:25.640Z,101453.82
2018-12-31T05:47:55.009Z,101455.94
2018-12-31T05:50:24.395Z,101457.29
2018-12-31T05:52:53.758Z,101457.16
2018-12-31T05:55:23.139Z,101458.19
2018-12-31T05:57:52.630Z,101454.56
2018-12-31T06:00:22.710Z,101460.78
2018-12-31T06:02:52.719Z,101469.33
2018-12-31T06:05:22.791Z,101476.20
2018-12-31T06:07:52.165Z,101470.83
2018-12-31T06:10:21.542Z,101473.45
2018-12-31T06:12:50.911Z,101469.02
2018-12-31T06:15:20.531Z,101466.61
2018-12-31T06:17:49.896Z,101468.83
2018-12-31T06:20:19.525Z,101472.66
2018-12-31T06:22:48.886Z,101469.33
2018-12-31T06:25:18.273Z,101468.41
2018-12-31T06:27:47.883Z,101470.89
2018-12-31T06:30:17.265Z,101469.17
2018-12-31T06:32:46.633Z,101474.09
2018-12-31T06:35:16.037Z,101475.39
2018-12-31T06:37:45.407Z,101460.78
2018-12-31T06:40:14.793Z,101464.59
2018-12-31T06:42:44.169Z,101471.77
2018-12-31T06:45:13.565Z,101462.50
2018-12-31T06:47:42.939Z,101469.41
2018-12-31T06:50:12.500Z,101473.34
2018-12-31T06:52:42.892Z,101474.39
2018-12-31T06:55:12.575Z,101482.74
2018-12-31T06:57:41.930Z,101486.23
2018-12-31T07:00:11.369Z,101485.70
2018-12-31T07:02:42.517Z,101495.34
2018-12-31T07:05:11.905Z,101498.41
2018-12-31T07:07:41.335Z,101490.92
2018-12-31T07:10:10.670Z,101495.55
2018-12-31T07:12:40.052Z,101500.18
2018-12-31T07:15:09.450Z,101494.99
2018-12-31T07:17:38.825Z,101499.68
2018-12-31T07:20:08.591Z,101500.21
2018-12-31T07:22:37.965Z,101493.94
2018-12-31T07:25:07.339Z,101500.02
2018-12-31T07:27:36.724Z,101505.22
2018-12-31T07:30:07.338Z,101499.25
2018-12-31T07:32:36.732Z,101499.34
2018-12-31T07:35:06.180Z,101504.58
2018-12-31T07:37:35.568Z,101506.64
2018-12-31T07:40:06.058Z,101511.80
2018-12-31T07:42:35.455Z,101508.20
2018-12-31T07:45:05.166Z,101520.62
2018-12-31T07:47:34.566Z,101513.23
2018-12-31T07:50:04.418Z,101511.48
2018-12-31T07:52:33.809Z,101511.94
2018-12-31T07:55:03.254Z,101516.02
2018-12-31T07:57:33.887Z,101509.63
2018-12-31T08:00:05.601Z,101511.41
2018-12-31T08:02:34.981Z,101506.19
2018-12-31T08:05:04.794Z,101508.73
2018-12-31T08:07:34.177Z,101513.36
2018-12-31T08:10:03.945Z,101514.66
2018-12-31T08:12:33.337Z,101528.87
2018-12-31T08:15:02.709Z,101531.49
2018-12-31T08:17:32.181Z,101544.33
2018-12-31T08:20:01.558Z,101546.58
2018-12-31T08:22:30.955Z,101551.14
2018-12-31T08:25:00.329Z,101548.52
2018-12-31T08:27:29.711Z,101559.66
2018-12-31T08:29:59.081Z,101563.77
2018-12-31T08:32:29.142Z,101563.72
2018-12-31T08:34:58.523Z,101561.56
2018-12-31T08:37:28.246Z,101567.55
2018-12-31T08:39:57.589Z,101566.13
2018-12-31T08:42:26.988Z,101568.95
2018-12-31T08:44:56.361Z,101576.72
2018-12-31T08:47:25.763Z,101578.14
2018-12-31T08:49:55.132Z,101578.86
2018-12-31T08:52:24.521Z,101569.98
2018-12-31T08:54:53.900Z,101569.91
2018-12-31T08:57:23.309Z,101570.62
2018-12-31T08:59:52.687Z,101569.53
2018-12-31T09:02:22.108Z,101578.17
2018-12-31T09:04:51.584Z,101572.98
2018-12-31T09:07:20.947Z,101572.40
2018-12-31T09:09:50.389Z,101572.19
2018-12-31T09:12:20.013Z,101579.86
2018-12-31T09:14:49.387Z,101569.19
2018-12-31T09:17:18.855Z,101574.41
2018-12-31T09:19:48.470Z,101571.89
2018-12-31T09:22:17.859Z,101576.00
2018-12-31T09:24:47.245Z,101579.02
2018-12-31T09:27:16.616Z,101583.66
2018-12-31T09:29:46.035Z,101586.46
2018-12-31T09:32:15.418Z,101590.34
2018-12-31T09:34:44.803Z,101588.98
2018-12-31T09:37:14.179Z,101591.38
2018-12-31T09:39:43.574Z,101595.41
2018-12-31T09:42:12.948Z,101597.18
2018-12-31T09:44:42.663Z,101596.23
2018-12-31T09:47:12.041Z,101588.59
2018-12-31T09:49:41.423Z,101592.25
2018-12-31T09:52:11.258Z,101584.45
2018-12-31T09:54:40.951Z,101588.20
2018-12-31T09:57:11.240Z,101583.26
2018-12-31T09:59:40.624Z,101582.88
2018-12-31T10:02:10.039Z,101581.09
2018-12-31T10:04:39.453Z,101580.61
2018-12-31T10:07:08.830Z,101578.41
2018-12-31T10:09:38.219Z,101573.75
2018-12-31T10:12:07.595Z,101568.77
2018-12-31T10:14:36.991Z,101575.44
2018-12-31T10:17:06.363Z,101576.23
2018-12-31T10:19:35.742Z,101575.20
2018-12-31T10:22:05.188Z,101581.42
2018-12-31T10:24:34.836Z,101576.02
2018-12-31T10:27:04.214Z,101576.65
2018-12-31T10:29:36.177Z,101570.42
2018-12-31T10:32:04.696Z,101565.39
2018-12-31T10:34:34.093Z,101563.72
2018-12-31T10:37:03.482Z,101562.52
2018-12-31T10:39:32.864Z,101559.28
2018-12-31T10:42:02.238Z,101559.06
2018-12-31T10:44:31.629Z,101562.39
2018-12-31T10:47:01.004Z,101562.46
2018-12-31T10:49:30.635Z,101564.04
2018-12-31T10:52:00.011Z,101564.96
2018-12-31T10:54:29.407Z,101554.70
2018-12-31T10:56:58.783Z,101560.49
2018-12-31T10:59:28.181Z,101555.70
2018-12-31T11:01:57.552Z,101553.67
2018-12-31T11:04:26.932Z,101561.71
2018-12-31T11:06:56.310Z,101545.81
2018-12-31T11:09:25.952Z,101553.14
2018-12-31T11:11:55.350Z,101554.91
2018-12-31T11:14:24.737Z,101556.30
2018-12-31T11:16:54.112Z,101562.09
2018-12-31T11:19:23.498Z,101561.65
2018-12-31T11:21:52.878Z,101559.98
2018-12-31T11:24:22.250Z,101550.61
2018-12-31T11:26:51.897Z,101548.86
2018-12-31T11:29:21.585Z,101543.28
2018-12-31T11:31:51.043Z,101546.17
2018-12-31T11:34:20.420Z,101540.16
2018-12-31T11:36:49.895Z,101538.57
2018-12-31T11:39:19.282Z,101534.87
2018-12-31T11:41:48.677Z,101529.14
2018-12-31T11:44:18.122Z,101522.77
2018-12-31T11:46:47.516Z,101521.09
2018-12-31T11:49:16.901Z,101523.70
2018-12-31T11:51:46.288Z,101525.93
2018-12-31T11:54:15.668Z,101523.22
2018-12-31T11:56:45.075Z,101516.79
2018-12-31T11:59:14.487Z,101518.93
2018-12-31T12:01:43.877Z,101509.08
2018-12-31T12:04:13.261Z,101508.13
2018-12-31T12:06:42.655Z,101502.03
2018-12-31T12:09:12.313Z,101500.50
2018-12-31T12:11:41.694Z,101499.02
2018-12-31T12:14:11.069Z,101498.86
2018-12-31T12:16:40.521Z,101502.02
2018-12-31T12:19:10.092Z,101505.60
2018-12-31T12:21:39.762Z,101502.19
2018-12-31T12:24:09.166Z,101499.98
2018-12-31T12:26:38.791Z,101493.73
2018-12-31T12:29:08.167Z,101493.02
2018-12-31T12:31:37.630Z,101492.62
2018-12-31T12:34:06.999Z,101487.47
2018-12-31T12:36:36.381Z,101495.81
2018-12-31T12:39:07.300Z,101494.51
2018-12-31T12:41:36.703Z,101499.98
2018-12-31T12:44:06.085Z,101499.75
2018-12-31T12:46:35.476Z,101495.63
2018-12-31T12:49:04.856Z,101493.95
2018-12-31T12:51:34.253Z,101496.62
2018-12-31T12:54:03.706Z,101496.88
2018-12-31T12:56:33.094Z,101501.83
2018-12-31T12:59:02.545Z,101501.96
2018-12-31T13:01:31.923Z,101496.17
2018-12-31T13:04:01.708Z,101494.75
2018-12-31T13:06:31.456Z,101497.23
2018-12-31T13:09:00.846Z,101492.67
2018-12-31T13:11:30.225Z,101494.10
2018-12-31T13:13:59.609Z,101498.53
2018-12-31T13:16:29.013Z,101494.85
2018-12-31T13:18:58.407Z,101495.60
2018-12-31T13:21:27.787Z,101500.28
2018-12-31T13:23:57.164Z,101492.51
2018-12-31T13:26:26.813Z,101490.51
2018-12-31T13:28:56.195Z,101488.48
2018-12-31T13:31:26.419Z,101496.62
2018-12-31T13:33:56.426Z,101500.06
2018-12-31T13:36:25.823Z,101491.80
2018-12-31T13:38:55.205Z,101490.11
2018-12-31T13:41:24.596Z,101490.34
2018-12-31T13:43:53.980Z,101490.03
2018-12-31T13:46:23.361Z,101488.59
2018-12-31T13:48:52.757Z,101489.11
2018-12-31T13:51:22.148Z,101490.34
2018-12-31T13:53:52.681Z,101490.54
2018-12-31T13:56:22.060Z,101484.81
2018-12-31T13:58:51.457Z,101484.55
2018-12-31T14:01:20.829Z,101486.62
2018-12-31T14:03:50.225Z,101487.33
2018-12-31T14:08:48.785Z,101484.87
2018-12-31T14:11:18.211Z,101485.94
2018-12-31T14:13:47.624Z,101486.46
2018-12-31T14:16:17.252Z,101486.78
2018-12-31T14:18:46.640Z,101489.39
2018-12-31T14:21:16.013Z,101491.14
2018-12-31T14:23:45.412Z,101494.04
2018-12-31T14:26:14.793Z,101493.44
2018-12-31T14:28:44.177Z,101500.30
2018-12-31T14:31:13.557Z,101498.25
2018-12-31T14:33:43.015Z,101495.50
2018-12-31T14:36:12.409Z,101493.42
2018-12-31T14:38:41.799Z,101494.33
2018-12-31T14:41:11.318Z,101495.91
2018-12-31T14:43:40.639Z,101501.81
2018-12-31T14:46:10.283Z,101504.41
2018-12-31T14:48:39.678Z,101503.77
2018-12-31T14:51:09.660Z,101505.73
2018-12-31T14:53:39.452Z,101509.61
2018-12-31T14:56:09.972Z,101511.77
2018-12-31T14:58:39.396Z,101513.81
2018-12-31T15:01:08.778Z,101510.28
2018-12-31T15:03:38.203Z,101514.80
2018-12-31T15:06:08.216Z,101514.39
2018-12-31T15:08:44.234Z,101513.83
2018-12-31T15:11:29.012Z,101505.58
2018-12-31T15:13:48.080Z,101509.05
2018-12-31T15:16:32.109Z,101517.86
2018-12-31T15:18:56.742Z,101511.95
2018-12-31T15:21:32.811Z,101517.22
2018-12-31T15:24:12.814Z,101518.61
2018-12-31T15:26:56.600Z,101518.65
2018-12-31T15:29:18.645Z,101522.61
2018-12-31T15:32:13.703Z,101523.73
2018-12-31T15:34:38.641Z,101522.95
2018-12-31T15:37:11.305Z,101527.52
2018-12-31T15:39:42.438Z,101527.07
2018-12-31T15:42:39.490Z,101526.55
2018-12-31T15:45:01.851Z,101524.50
2018-12-31T15:47:40.076Z,101523.65
2018-12-31T15:50:24.566Z,101525.36
2018-12-31T15:52:45.253Z,101524.41
2018-12-31T15:55:20.645Z,101523.94
2018-12-31T15:57:50.877Z,101523.62
2018-12-31T16:00:28.352Z,101526.28
2018-12-31T16:03:22.154Z,101529.44
2018-12-31T16:06:02.976Z,101530.34
2018-12-31T16:08:34.325Z,101526.98
2018-12-31T16:11:10.526Z,101532.39
2018-12-31T16:13:48.687Z,101534.89
2018-12-31T16:16:21.059Z,101542.73
2018-12-31T16:18:51.197Z,101536.35
2018-12-31T16:21:24.644Z,101541.28
2018-12-31T16:23:54.336Z,101540.58
2018-12-31T16:26:27.678Z,101538.19
2018-12-31T16:28:56.930Z,101536.86
2018-12-31T16:31:27.023Z,101539.06
2018-12-31T16:33:56.767Z,101547.39
2018-12-31T16:36:30.053Z,101552.08
2018-12-31T16:38:59.524Z,101543.43
2018-12-31T16:41:28.950Z,101545.19
2018-12-31T16:43:58.439Z,101541.26
2018-12-31T16:46:33.490Z,101535.86
2018-12-31T16:49:02.892Z,101539.97
2018-12-31T16:51:37.212Z,101536.38
2018-12-31T16:54:24.828Z,101543.19
2018-12-31T16:56:54.217Z,101542.72
2018-12-31T16:59:23.590Z,101541.58
2018-12-31T17:01:52.988Z,101547.93
2018-12-31T17:04:22.361Z,101545.92
2018-12-31T17:06:52.101Z,101550.05
2018-12-31T17:09:21.481Z,101545.39
2018-12-31T17:11:50.874Z,101547.14
2018-12-31T17:14:20.245Z,101541.36
2018-12-31T17:16:49.624Z,101543.09
2018-12-31T17:19:18.996Z,101540.94
2018-12-31T17:21:48.669Z,101546.80
2018-12-31T17:24:18.050Z,101536.74
2018-12-31T17:26:47.448Z,101541.83
2018-12-31T17:29:16.836Z,101541.91
2018-12-31T17:31:46.225Z,101541.67
2018-12-31T17:34:15.595Z,101539.92
2018-12-31T17:36:44.982Z,101538.50
2018-12-31T17:39:14.463Z,101536.94
2018-12-31T17:41:45.745Z,101543.30
2018-12-31T17:44:16.656Z,101537.68
2018-12-31T17:46:47.952Z,101535.53
2018-12-31T17:49:18.860Z,101541.05
2018-12-31T17:51:55.575Z,101539.28
2018-12-31T17:54:19.883Z,101542.59
2018-12-31T17:56:49.691Z,101543.91
2018-12-31T17:59:19.093Z,101539.98
2018-12-31T18:01:50.134Z,101544.84
2018-12-31T18:04:20.579Z,101536.13
2018-12-31T18:06:50.297Z,101538.84
2018-12-31T18:09:19.914Z,101530.88
2018-12-31T18:11:55.342Z,101535.02
2018-12-31T18:14:23.798Z,101534.98
2018-12-31T18:16:59.839Z,101537.89
2018-12-31T18:19:36.196Z,101534.86
2018-12-31T18:22:04.206Z,101532.81
2018-12-31T18:24:42.896Z,101536.94
2018-12-31T18:27:09.514Z,101535.03
2018-12-31T18:29:38.975Z,101528.63
2018-12-31T18:32:08.517Z,101531.73
2018-12-31T18:34:37.926Z,101535.65
2018-12-31T18:37:07.677Z,101532.52
2018-12-31T18:39:38.650Z,101534.03
2018-12-31T18:42:08.152Z,101540.39
2018-12-31T18:44:37.651Z,101537.53
2018-12-31T18:47:07.839Z,101546.24
2018-12-31T18:49:38.409Z,101546.11
2018-12-31T18:52:13.317Z,101550.27
2018-12-31T18:54:44.024Z,101544.86
2018-12-31T18:57:14.955Z,101542.43
2018-12-31T18:59:46.817Z,101547.64
2018-12-31T19:02:19.190Z,101544.36
2018-12-31T19:04:50.855Z,101542.59
2018-12-31T19:07:20.313Z,101550.29
2018-12-31T19:09:49.789Z,101542.32
2018-12-31T19:12:20.764Z,101540.12
2018-12-31T19:14:50.615Z,101546.59
2018-12-31T19:17:20.199Z,101543.06
2018-12-31T19:19:49.744Z,101541.69
2018-12-31T19:22:19.235Z,101537.32
2018-12-31T19:24:50.175Z,101535.67
2018-12-31T19:27:19.650Z,101541.34
2018-12-31T19:29:49.158Z,101534.78
2018-12-31T19:32:18.639Z,101542.03
2018-12-31T19:34:48.151Z,101544.34
2018-12-31T19:37:20.629Z,101542.19
2018-12-31T19:39:52.125Z,101543.33
2018-12-31T19:42:21.831Z,101544.47
2018-12-31T19:44:51.332Z,101534.44
2018-12-31T19:47:20.820Z,101542.72
2018-12-31T19:49:50.219Z,101540.62
2018-12-31T19:52:21.162Z,101532.77
2018-12-31T19:54:52.786Z,101527.07
2018-12-31T19:57:24.893Z,101524.16
2018-12-31T19:59:54.282Z,101532.08
2018-12-31T20:02:24.105Z,101532.87
2018-12-31T20:04:55.303Z,101527.12
2018-12-31T20:07:26.366Z,101523.18
2018-12-31T20:09:58.985Z,101526.54
2018-12-31T20:12:28.508Z,101522.88
2018-12-31T20:14:57.979Z,101518.84
2018-12-31T20:17:31.983Z,101512.80
2018-12-31T20:20:01.684Z,101509.70
2018-12-31T20:22:36.232Z,101503.88
2018-12-31T20:25:05.699Z,101501.84
2018-12-31T20:27:35.321Z,101510.25
2018-12-31T20:30:07.599Z,101503.16
2018-12-31T20:32:37.049Z,101504.52
2018-12-31T20:35:09.574Z,101500.73
2018-12-31T20:37:49.473Z,101501.65
2018-12-31T20:40:12.948Z,101505.05
2018-12-31T20:42:54.300Z,101506.45
2018-12-31T20:45:25.614Z,101502.91
2018-12-31T20:48:01.779Z,101497.54
2018-12-31T20:50:32.307Z,101499.92
2018-12-31T20:53:02.861Z,101496.06
2018-12-31T20:55:39.749Z,101495.00
2018-12-31T20:58:05.237Z,101499.10
2018-12-31T21:00:34.800Z,101495.64
2018-12-31T21:03:05.794Z,101495.45
2018-12-31T21:05:35.211Z,101492.73
2018-12-31T21:09:16.695Z,101491.17
2018-12-31T21:10:52.716Z,101473.69
2018-12-31T21:13:23.663Z,101468.34
2018-12-31T21:15:53.214Z,101471.99
2018-12-31T21:18:22.684Z,101470.98
2018-12-31T21:20:52.181Z,101466.48
2018-12-31T21:23:22.431Z,101461.02
2018-12-31T21:25:51.906Z,101458.31
2018-12-31T21:28:24.208Z,101458.55
2018-12-31T21:30:52.678Z,101450.99
2018-12-31T21:33:22.147Z,101443.73
2018-12-31T21:35:57.933Z,101444.08
2018-12-31T21:38:23.807Z,101442.49
2018-12-31T21:40:53.813Z,101451.34
2018-12-31T21:43:26.252Z,101444.53
2018-12-31T21:45:56.010Z,101444.06
2018-12-31T21:48:28.652Z,101451.81
2018-12-31T21:51:02.038Z,101441.73
2018-12-31T21:53:42.729Z,101445.85
2018-12-31T21:56:22.596Z,101446.64
2018-12-31T21:58:52.044Z,101447.34
2018-12-31T22:01:21.758Z,101449.42
2018-12-31T22:03:55.965Z,101449.95
2018-12-31T22:06:25.492Z,101450.09
2018-12-31T22:08:59.053Z,101446.59
2018-12-31T22:11:29.971Z,101444.17
2018-12-31T22:14:01.664Z,101448.64
2018-12-31T22:16:32.962Z,101444.88
2018-12-31T22:19:02.471Z,101450.94
2018-12-31T22:21:33.401Z,101450.55
2018-12-31T22:24:04.619Z,101452.87
2018-12-31T22:26:34.104Z,101447.37
2018-12-31T22:29:03.507Z,101452.50
2018-12-31T22:31:37.806Z,101447.53
2018-12-31T22:34:07.334Z,101440.89
2018-12-31T22:36:41.546Z,101446.63
2018-12-31T22:39:08.522Z,101443.87
2018-12-31T22:41:39.727Z,101442.16
2018-12-31T22:44:27.203Z,101451.09
2018-12-31T22:47:01.468Z,101451.02
2018-12-31T22:49:28.292Z,101456.12
2018-12-31T22:51:57.859Z,101451.20
2018-12-31T22:54:27.536Z,101449.09
2018-12-31T22:57:00.218Z,101437.88
2018-12-31T22:59:30.020Z,101441.16
2018-12-31T23:02:02.849Z,101444.09
2018-12-31T23:04:32.458Z,101443.80
2018-12-31T23:07:06.842Z,101448.64
2018-12-31T23:09:48.625Z,101449.03
2018-12-31T23:12:23.229Z,101444.83
2018-12-31T23:18:03.475Z,101440.61
2018-12-31T23:20:30.221Z,101441.55
2018-12-31T23:23:00.687Z,101442.28
2018-12-31T23:25:31.906Z,101438.55
2018-12-31T23:28:01.597Z,101437.23
2018-12-31T23:30:34.061Z,101436.48
2018-12-31T23:33:03.683Z,101429.19
2018-12-31T23:35:35.330Z,101423.05
2018-12-31T23:38:06.345Z,101428.84
2018-12-31T23:40:59.206Z,101422.95
2018-12-31T23:43:35.775Z,101426.23
2018-12-31T23:46:04.208Z,101429.11
2018-12-31T23:48:48.148Z,101427.68
2018-12-31T23:51:05.250Z,101425.91
2018-12-31T23:53:39.422Z,101424.19
2018-12-31T23:56:08.997Z,101427.15
2018-12-31T23:58:38.510Z,101424.64
